sensor_id;sensor_type;location;lat;lon;timestamp;P1;durP1;ratioP1;P2;durP2;ratioP2
15331;SDS011;7766;51.534;6.722;2023-03-05T00:00:03;7.40;;;1.67;;
15331;SDS011;7766;51.534;6.722;2023-03-05T00:01:14;8.05;;;1.65;;
15331;SDS011;7766;51.534;6.722;2023-03-05T00:02:19;5.00;;;1.25;;
15331;SDS011;7766;51.534;6.722;2023-03-05T00:03:20;5.47;;;1.55;;
15331;SDS011;7766;51.534;6.722;2023-03-05T00:04:21;7.50;;;2.00;;
15331;SDS011;7766;51.534;6.722;2023-03-05T00:05:22;6.90;;;1.90;;
15331;SDS011;7766;51.534;6.722;2023-03-05T00:06:24;8.30;;;1.90;;
15331;SDS011;7766;51.534;6.722;2023-03-05T00:07:27;10.48;;;2.13;;
15331;SDS011;7766;51.534;6.722;2023-03-05T00:08:28;9.33;;;1.67;;
15331;SDS011;7766;51.534;6.722;2023-03-05T00:09:30;5.95;;;2.10;;
15331;SDS011;7766;51.534;6.722;2023-03-05T00:10:31;7.53;;;2.03;;
15331;SDS011;7766;51.534;6.722;2023-03-05T00:11:32;16.30;;;2.75;;
15331;SDS011;7766;51.534;6.722;2023-03-05T00:12:33;10.30;;;2.00;;
15331;SDS011;7766;51.534;6.722;2023-03-05T00:13:35;8.20;;;1.95;;
15331;SDS011;7766;51.534;6.722;2023-03-05T00:14:36;7.03;;;1.77;;
15331;SDS011;7766;51.534;6.722;2023-03-05T00:15:40;9.27;;;2.00;;
15331;SDS011;7766;51.534;6.722;2023-03-05T00:16:42;8.63;;;1.90;;
15331;SDS011;7766;51.534;6.722;2023-03-05T00:17:43;6.57;;;2.03;;
15331;SDS011;7766;51.534;6.722;2023-03-05T00:18:44;3.42;;;2.10;;
15331;SDS011;7766;51.534;6.722;2023-03-05T00:19:45;7.85;;;1.95;;
15331;SDS011;7766;51.534;6.722;2023-03-05T00:20:46;8.73;;;2.45;;
15331;SDS011;7766;51.534;6.722;2023-03-05T00:21:47;6.28;;;2.03;;
15331;SDS011;7766;51.534;6.722;2023-03-05T00:22:48;10.67;;;1.77;;
15331;SDS011;7766;51.534;6.722;2023-03-05T00:23:49;10.47;;;2.37;;
15331;SDS011;7766;51.534;6.722;2023-03-05T00:24:51;9.88;;;2.35;;
15331;SDS011;7766;51.534;6.722;2023-03-05T00:25:52;9.50;;;2.08;;
15331;SDS011;7766;51.534;6.722;2023-03-05T00:26:53;6.50;;;1.80;;
15331;SDS011;7766;51.534;6.722;2023-03-05T00:27:54;8.48;;;2.10;;
15331;SDS011;7766;51.534;6.722;2023-03-05T00:28:56;9.90;;;2.33;;
15331;SDS011;7766;51.534;6.722;2023-03-05T00:29:57;6.68;;;1.92;;
15331;SDS011;7766;51.534;6.722;2023-03-05T00:30:59;6.63;;;2.22;;
15331;SDS011;7766;51.534;6.722;2023-03-05T00:32:00;7.97;;;2.20;;
15331;SDS011;7766;51.534;6.722;2023-03-05T00:33:01;5.33;;;1.93;;
15331;SDS011;7766;51.534;6.722;2023-03-05T00:34:04;6.00;;;2.00;;
15331;SDS011;7766;51.534;6.722;2023-03-05T00:35:11;8.40;;;1.85;;
15331;SDS011;7766;51.534;6.722;2023-03-05T00:36:12;6.68;;;1.75;;
15331;SDS011;7766;51.534;6.722;2023-03-05T00:37:13;11.52;;;2.25;;
15331;SDS011;7766;51.534;6.722;2023-03-05T00:38:14;8.25;;;2.03;;
15331;SDS011;7766;51.534;6.722;2023-03-05T00:39:16;8.30;;;2.05;;
15331;SDS011;7766;51.534;6.722;2023-03-05T00:40:18;8.07;;;1.73;;
15331;SDS011;7766;51.534;6.722;2023-03-05T00:41:19;6.82;;;2.08;;
15331;SDS011;7766;51.534;6.722;2023-03-05T00:42:20;5.28;;;2.08;;
15331;SDS011;7766;51.534;6.722;2023-03-05T00:43:21;9.13;;;1.95;;
15331;SDS011;7766;51.534;6.722;2023-03-05T00:44:23;7.03;;;2.08;;
15331;SDS011;7766;51.534;6.722;2023-03-05T00:45:24;6.22;;;1.95;;
15331;SDS011;7766;51.534;6.722;2023-03-05T00:46:24;6.90;;;1.50;;
15331;SDS011;7766;51.534;6.722;2023-03-05T00:47:26;6.07;;;1.83;;
15331;SDS011;7766;51.534;6.722;2023-03-05T00:48:27;8.27;;;1.98;;
15331;SDS011;7766;51.534;6.722;2023-03-05T00:49:28;7.80;;;1.90;;
15331;SDS011;7766;51.534;6.722;2023-03-05T00:50:29;7.60;;;2.27;;
15331;SDS011;7766;51.534;6.722;2023-03-05T00:51:29;8.30;;;2.20;;
15331;SDS011;7766;51.534;6.722;2023-03-05T00:52:31;8.15;;;2.35;;
15331;SDS011;7766;51.534;6.722;2023-03-05T00:53:32;6.18;;;2.08;;
15331;SDS011;7766;51.534;6.722;2023-03-05T00:54:33;8.40;;;1.93;;
15331;SDS011;7766;51.534;6.722;2023-03-05T00:55:34;8.97;;;1.63;;
15331;SDS011;7766;51.534;6.722;2023-03-05T00:56:35;6.43;;;1.80;;
15331;SDS011;7766;51.534;6.722;2023-03-05T00:57:36;9.30;;;2.17;;
15331;SDS011;7766;51.534;6.722;2023-03-05T00:58:37;5.78;;;1.95;;
15331;SDS011;7766;51.534;6.722;2023-03-05T00:59:38;11.80;;;2.47;;
15331;SDS011;7766;51.534;6.722;2023-03-05T01:00:39;7.40;;;1.98;;
15331;SDS011;7766;51.534;6.722;2023-03-05T01:01:40;8.85;;;2.00;;
15331;SDS011;7766;51.534;6.722;2023-03-05T01:02:41;7.80;;;2.10;;
15331;SDS011;7766;51.534;6.722;2023-03-05T01:03:42;5.35;;;2.33;;
15331;SDS011;7766;51.534;6.722;2023-03-05T01:04:43;4.30;;;2.00;;
15331;SDS011;7766;51.534;6.722;2023-03-05T01:05:46;12.40;;;1.88;;
15331;SDS011;7766;51.534;6.722;2023-03-05T01:06:47;6.32;;;2.05;;
15331;SDS011;7766;51.534;6.722;2023-03-05T01:07:50;5.87;;;2.00;;
15331;SDS011;7766;51.534;6.722;2023-03-05T01:08:52;10.10;;;2.72;;
15331;SDS011;7766;51.534;6.722;2023-03-05T01:09:55;9.05;;;2.30;;
15331;SDS011;7766;51.534;6.722;2023-03-05T01:10:55;7.10;;;2.20;;
15331;SDS011;7766;51.534;6.722;2023-03-05T01:11:57;6.70;;;2.28;;
15331;SDS011;7766;51.534;6.722;2023-03-05T01:12:59;7.45;;;1.92;;
15331;SDS011;7766;51.534;6.722;2023-03-05T01:13:59;5.17;;;2.00;;
15331;SDS011;7766;51.534;6.722;2023-03-05T01:15:01;5.15;;;2.22;;
15331;SDS011;7766;51.534;6.722;2023-03-05T01:16:03;6.38;;;2.10;;
15331;SDS011;7766;51.534;6.722;2023-03-05T01:17:04;8.25;;;2.83;;
15331;SDS011;7766;51.534;6.722;2023-03-05T01:18:05;8.35;;;2.30;;
15331;SDS011;7766;51.534;6.722;2023-03-05T01:19:06;7.17;;;1.70;;
15331;SDS011;7766;51.534;6.722;2023-03-05T01:20:07;7.53;;;2.13;;
15331;SDS011;7766;51.534;6.722;2023-03-05T01:21:11;5.15;;;1.92;;
15331;SDS011;7766;51.534;6.722;2023-03-05T01:22:12;7.28;;;2.30;;
15331;SDS011;7766;51.534;6.722;2023-03-05T01:23:13;6.97;;;1.80;;
15331;SDS011;7766;51.534;6.722;2023-03-05T01:24:15;10.20;;;2.40;;
15331;SDS011;7766;51.534;6.722;2023-03-05T01:25:16;8.95;;;2.35;;
15331;SDS011;7766;51.534;6.722;2023-03-05T01:26:18;4.75;;;1.95;;
15331;SDS011;7766;51.534;6.722;2023-03-05T01:27:19;7.82;;;2.17;;
15331;SDS011;7766;51.534;6.722;2023-03-05T01:28:20;11.00;;;2.40;;
15331;SDS011;7766;51.534;6.722;2023-03-05T01:29:21;10.20;;;3.95;;
15331;SDS011;7766;51.534;6.722;2023-03-05T01:30:23;9.27;;;3.00;;
15331;SDS011;7766;51.534;6.722;2023-03-05T01:31:24;8.27;;;2.10;;
15331;SDS011;7766;51.534;6.722;2023-03-05T01:32:25;7.32;;;2.22;;
15331;SDS011;7766;51.534;6.722;2023-03-05T01:33:26;5.60;;;2.28;;
15331;SDS011;7766;51.534;6.722;2023-03-05T01:34:27;8.05;;;2.45;;
15331;SDS011;7766;51.534;6.722;2023-03-05T01:35:28;7.20;;;2.22;;
15331;SDS011;7766;51.534;6.722;2023-03-05T01:36:29;8.93;;;2.10;;
15331;SDS011;7766;51.534;6.722;2023-03-05T01:37:30;12.43;;;2.40;;
15331;SDS011;7766;51.534;6.722;2023-03-05T01:38:33;8.45;;;2.40;;
15331;SDS011;7766;51.534;6.722;2023-03-05T01:39:34;8.82;;;2.33;;
15331;SDS011;7766;51.534;6.722;2023-03-05T01:40:35;9.15;;;2.13;;
15331;SDS011;7766;51.534;6.722;2023-03-05T01:41:36;13.20;;;2.47;;
15331;SDS011;7766;51.534;6.722;2023-03-05T01:42:37;6.80;;;2.40;;
15331;SDS011;7766;51.534;6.722;2023-03-05T01:43:38;7.55;;;2.15;;
15331;SDS011;7766;51.534;6.722;2023-03-05T01:44:57;7.43;;;1.98;;
15331;SDS011;7766;51.534;6.722;2023-03-05T01:47:20;7.95;;;2.20;;
15331;SDS011;7766;51.534;6.722;2023-03-05T01:48:21;4.93;;;2.03;;
15331;SDS011;7766;51.534;6.722;2023-03-05T01:49:23;6.50;;;2.17;;
15331;SDS011;7766;51.534;6.722;2023-03-05T01:50:33;8.70;;;2.60;;
15331;SDS011;7766;51.534;6.722;2023-03-05T01:51:39;4.85;;;2.03;;
15331;SDS011;7766;51.534;6.722;2023-03-05T01:52:49;6.05;;;1.92;;
15331;SDS011;7766;51.534;6.722;2023-03-05T01:53:55;6.10;;;1.73;;
15331;SDS011;7766;51.534;6.722;2023-03-05T01:55:04;6.80;;;2.10;;
15331;SDS011;7766;51.534;6.722;2023-03-05T01:56:10;4.97;;;1.80;;
15331;SDS011;7766;51.534;6.722;2023-03-05T01:57:17;9.57;;;2.40;;
15331;SDS011;7766;51.534;6.722;2023-03-05T01:58:21;7.45;;;1.70;;
15331;SDS011;7766;51.534;6.722;2023-03-05T01:59:24;8.40;;;2.10;;
15331;SDS011;7766;51.534;6.722;2023-03-05T02:00:30;4.25;;;1.35;;
15331;SDS011;7766;51.534;6.722;2023-03-05T02:01:43;9.98;;;2.83;;
15331;SDS011;7766;51.534;6.722;2023-03-05T02:02:48;8.82;;;2.20;;
15331;SDS011;7766;51.534;6.722;2023-03-05T02:03:50;9.65;;;3.35;;
15331;SDS011;7766;51.534;6.722;2023-03-05T02:04:53;13.85;;;5.07;;
15331;SDS011;7766;51.534;6.722;2023-03-05T02:05:57;18.92;;;9.95;;
15331;SDS011;7766;51.534;6.722;2023-03-05T02:06:58;13.43;;;5.75;;
15331;SDS011;7766;51.534;6.722;2023-03-05T02:08:01;9.65;;;3.42;;
15331;SDS011;7766;51.534;6.722;2023-03-05T02:09:06;9.48;;;2.42;;
15331;SDS011;7766;51.534;6.722;2023-03-05T02:10:42;9.40;;;3.00;;
15331;SDS011;7766;51.534;6.722;2023-03-05T02:11:37;14.30;;;2.78;;
15331;SDS011;7766;51.534;6.722;2023-03-05T02:12:39;6.93;;;2.30;;
15331;SDS011;7766;51.534;6.722;2023-03-05T02:13:40;8.63;;;2.42;;
15331;SDS011;7766;51.534;6.722;2023-03-05T02:14:41;10.68;;;2.83;;
15331;SDS011;7766;51.534;6.722;2023-03-05T02:15:45;8.57;;;2.45;;
15331;SDS011;7766;51.534;6.722;2023-03-05T02:16:49;7.50;;;2.17;;
15331;SDS011;7766;51.534;6.722;2023-03-05T02:17:50;9.45;;;3.00;;
15331;SDS011;7766;51.534;6.722;2023-03-05T02:18:51;10.43;;;2.40;;
15331;SDS011;7766;51.534;6.722;2023-03-05T02:19:53;9.63;;;2.47;;
15331;SDS011;7766;51.534;6.722;2023-03-05T02:21:04;7.03;;;2.30;;
15331;SDS011;7766;51.534;6.722;2023-03-05T02:22:12;8.05;;;2.50;;
15331;SDS011;7766;51.534;6.722;2023-03-05T02:23:14;6.82;;;2.10;;
15331;SDS011;7766;51.534;6.722;2023-03-05T02:24:18;9.07;;;2.08;;
15331;SDS011;7766;51.534;6.722;2023-03-05T02:25:35;9.27;;;2.35;;
15331;SDS011;7766;51.534;6.722;2023-03-05T02:26:36;10.77;;;2.58;;
15331;SDS011;7766;51.534;6.722;2023-03-05T02:27:38;8.18;;;2.55;;
15331;SDS011;7766;51.534;6.722;2023-03-05T02:28:42;12.25;;;2.38;;
15331;SDS011;7766;51.534;6.722;2023-03-05T02:29:52;8.70;;;2.58;;
15331;SDS011;7766;51.534;6.722;2023-03-05T02:30:53;8.30;;;2.45;;
15331;SDS011;7766;51.534;6.722;2023-03-05T02:31:54;11.07;;;2.92;;
15331;SDS011;7766;51.534;6.722;2023-03-05T02:32:54;6.50;;;2.30;;
15331;SDS011;7766;51.534;6.722;2023-03-05T02:33:56;10.77;;;2.55;;
15331;SDS011;7766;51.534;6.722;2023-03-05T02:34:57;10.35;;;2.45;;
15331;SDS011;7766;51.534;6.722;2023-03-05T02:35:58;7.30;;;2.38;;
15331;SDS011;7766;51.534;6.722;2023-03-05T02:36:59;9.60;;;2.40;;
15331;SDS011;7766;51.534;6.722;2023-03-05T02:38:01;7.43;;;3.03;;
15331;SDS011;7766;51.534;6.722;2023-03-05T02:39:02;5.67;;;2.33;;
15331;SDS011;7766;51.534;6.722;2023-03-05T02:40:03;7.43;;;2.50;;
15331;SDS011;7766;51.534;6.722;2023-03-05T02:41:05;6.95;;;2.22;;
15331;SDS011;7766;51.534;6.722;2023-03-05T02:42:06;6.65;;;2.72;;
15331;SDS011;7766;51.534;6.722;2023-03-05T02:43:07;8.30;;;2.13;;
15331;SDS011;7766;51.534;6.722;2023-03-05T02:44:08;7.18;;;2.33;;
15331;SDS011;7766;51.534;6.722;2023-03-05T02:45:10;7.90;;;2.53;;
15331;SDS011;7766;51.534;6.722;2023-03-05T02:46:11;9.85;;;2.53;;
15331;SDS011;7766;51.534;6.722;2023-03-05T02:47:12;9.13;;;2.87;;
15331;SDS011;7766;51.534;6.722;2023-03-05T02:48:13;5.97;;;2.50;;
15331;SDS011;7766;51.534;6.722;2023-03-05T02:49:14;8.50;;;2.17;;
15331;SDS011;7766;51.534;6.722;2023-03-05T02:50:15;8.60;;;2.42;;
15331;SDS011;7766;51.534;6.722;2023-03-05T02:51:16;7.38;;;2.13;;
15331;SDS011;7766;51.534;6.722;2023-03-05T02:52:17;8.27;;;2.30;;
15331;SDS011;7766;51.534;6.722;2023-03-05T02:53:18;7.93;;;2.33;;
15331;SDS011;7766;51.534;6.722;2023-03-05T02:54:19;9.98;;;2.70;;
15331;SDS011;7766;51.534;6.722;2023-03-05T02:55:21;6.50;;;2.83;;
15331;SDS011;7766;51.534;6.722;2023-03-05T02:56:22;6.97;;;2.90;;
15331;SDS011;7766;51.534;6.722;2023-03-05T02:57:23;5.73;;;2.43;;
15331;SDS011;7766;51.534;6.722;2023-03-05T02:58:24;9.48;;;2.83;;
15331;SDS011;7766;51.534;6.722;2023-03-05T02:59:25;6.53;;;2.20;;
15331;SDS011;7766;51.534;6.722;2023-03-05T03:00:26;8.35;;;3.08;;
15331;SDS011;7766;51.534;6.722;2023-03-05T03:01:27;7.72;;;2.40;;
15331;SDS011;7766;51.534;6.722;2023-03-05T03:02:28;5.72;;;2.28;;
15331;SDS011;7766;51.534;6.722;2023-03-05T03:03:29;8.57;;;2.70;;
15331;SDS011;7766;51.534;6.722;2023-03-05T03:04:30;8.65;;;2.30;;
15331;SDS011;7766;51.534;6.722;2023-03-05T03:05:31;9.38;;;2.83;;
15331;SDS011;7766;51.534;6.722;2023-03-05T03:06:33;12.23;;;3.03;;
15331;SDS011;7766;51.534;6.722;2023-03-05T03:07:34;7.38;;;2.88;;
15331;SDS011;7766;51.534;6.722;2023-03-05T03:08:35;9.38;;;2.70;;
15331;SDS011;7766;51.534;6.722;2023-03-05T03:09:36;6.72;;;2.50;;
15331;SDS011;7766;51.534;6.722;2023-03-05T03:10:38;7.35;;;2.60;;
15331;SDS011;7766;51.534;6.722;2023-03-05T03:11:39;7.20;;;2.72;;
15331;SDS011;7766;51.534;6.722;2023-03-05T03:12:41;9.18;;;2.10;;
15331;SDS011;7766;51.534;6.722;2023-03-05T03:13:43;4.47;;;1.95;;
15331;SDS011;7766;51.534;6.722;2023-03-05T03:14:44;9.38;;;2.30;;
15331;SDS011;7766;51.534;6.722;2023-03-05T03:15:45;9.20;;;2.40;;
15331;SDS011;7766;51.534;6.722;2023-03-05T03:16:46;6.88;;;2.22;;
15331;SDS011;7766;51.534;6.722;2023-03-05T03:17:47;9.85;;;2.53;;
15331;SDS011;7766;51.534;6.722;2023-03-05T03:18:47;9.83;;;2.33;;
15331;SDS011;7766;51.534;6.722;2023-03-05T03:19:48;9.52;;;2.40;;
15331;SDS011;7766;51.534;6.722;2023-03-05T03:20:49;6.90;;;2.00;;
15331;SDS011;7766;51.534;6.722;2023-03-05T03:21:50;4.10;;;1.80;;
15331;SDS011;7766;51.534;6.722;2023-03-05T03:22:53;7.18;;;1.88;;
15331;SDS011;7766;51.534;6.722;2023-03-05T03:23:54;4.57;;;1.73;;
15331;SDS011;7766;51.534;6.722;2023-03-05T03:24:55;4.83;;;1.40;;
15331;SDS011;7766;51.534;6.722;2023-03-05T03:25:56;5.45;;;1.50;;
15331;SDS011;7766;51.534;6.722;2023-03-05T03:26:57;7.80;;;1.60;;
15331;SDS011;7766;51.534;6.722;2023-03-05T03:27:58;4.68;;;1.10;;
15331;SDS011;7766;51.534;6.722;2023-03-05T03:28:59;3.83;;;1.35;;
15331;SDS011;7766;51.534;6.722;2023-03-05T03:30:01;5.10;;;1.55;;
15331;SDS011;7766;51.534;6.722;2023-03-05T03:31:03;6.53;;;1.30;;
15331;SDS011;7766;51.534;6.722;2023-03-05T03:32:04;5.18;;;1.48;;
15331;SDS011;7766;51.534;6.722;2023-03-05T03:33:07;6.93;;;1.55;;
15331;SDS011;7766;51.534;6.722;2023-03-05T03:34:08;5.80;;;1.42;;
15331;SDS011;7766;51.534;6.722;2023-03-05T03:35:09;4.95;;;2.00;;
15331;SDS011;7766;51.534;6.722;2023-03-05T03:36:11;5.10;;;1.48;;
15331;SDS011;7766;51.534;6.722;2023-03-05T03:37:12;5.60;;;1.45;;
15331;SDS011;7766;51.534;6.722;2023-03-05T03:38:14;5.68;;;1.83;;
15331;SDS011;7766;51.534;6.722;2023-03-05T03:39:15;5.10;;;1.60;;
15331;SDS011;7766;51.534;6.722;2023-03-05T03:40:16;3.35;;;1.20;;
15331;SDS011;7766;51.534;6.722;2023-03-05T03:41:17;4.15;;;1.40;;
15331;SDS011;7766;51.534;6.722;2023-03-05T03:42:18;4.33;;;1.47;;
15331;SDS011;7766;51.534;6.722;2023-03-05T03:43:20;6.28;;;1.40;;
15331;SDS011;7766;51.534;6.722;2023-03-05T03:44:21;5.90;;;1.60;;
15331;SDS011;7766;51.534;6.722;2023-03-05T03:45:23;4.00;;;1.38;;
15331;SDS011;7766;51.534;6.722;2023-03-05T03:46:24;5.22;;;1.42;;
15331;SDS011;7766;51.534;6.722;2023-03-05T03:47:25;4.97;;;1.63;;
15331;SDS011;7766;51.534;6.722;2023-03-05T03:48:27;2.53;;;1.55;;
15331;SDS011;7766;51.534;6.722;2023-03-05T03:49:28;5.30;;;1.67;;
15331;SDS011;7766;51.534;6.722;2023-03-05T03:50:29;4.20;;;1.65;;
15331;SDS011;7766;51.534;6.722;2023-03-05T03:51:31;5.95;;;1.55;;
15331;SDS011;7766;51.534;6.722;2023-03-05T03:52:32;4.28;;;1.70;;
15331;SDS011;7766;51.534;6.722;2023-03-05T03:53:33;6.07;;;1.67;;
15331;SDS011;7766;51.534;6.722;2023-03-05T03:54:34;1.77;;;1.15;;
15331;SDS011;7766;51.534;6.722;2023-03-05T03:55:35;5.03;;;1.60;;
15331;SDS011;7766;51.534;6.722;2023-03-05T03:56:36;4.50;;;1.63;;
15331;SDS011;7766;51.534;6.722;2023-03-05T03:57:37;3.72;;;1.52;;
15331;SDS011;7766;51.534;6.722;2023-03-05T03:58:38;4.27;;;1.77;;
15331;SDS011;7766;51.534;6.722;2023-03-05T03:59:39;7.00;;;1.70;;
15331;SDS011;7766;51.534;6.722;2023-03-05T04:00:40;6.97;;;1.80;;
15331;SDS011;7766;51.534;6.722;2023-03-05T04:01:41;6.00;;;1.57;;
15331;SDS011;7766;51.534;6.722;2023-03-05T04:02:42;5.55;;;2.00;;
15331;SDS011;7766;51.534;6.722;2023-03-05T04:03:42;5.70;;;1.53;;
15331;SDS011;7766;51.534;6.722;2023-03-05T04:04:44;4.32;;;1.88;;
15331;SDS011;7766;51.534;6.722;2023-03-05T04:05:45;4.20;;;1.63;;
15331;SDS011;7766;51.534;6.722;2023-03-05T04:06:46;6.15;;;1.80;;
15331;SDS011;7766;51.534;6.722;2023-03-05T04:07:47;4.90;;;1.65;;
15331;SDS011;7766;51.534;6.722;2023-03-05T04:08:47;4.10;;;1.50;;
15331;SDS011;7766;51.534;6.722;2023-03-05T04:09:48;5.75;;;1.90;;
15331;SDS011;7766;51.534;6.722;2023-03-05T04:10:50;6.00;;;2.00;;
15331;SDS011;7766;51.534;6.722;2023-03-05T04:11:50;8.47;;;2.20;;
15331;SDS011;7766;51.534;6.722;2023-03-05T04:12:51;7.32;;;2.40;;
15331;SDS011;7766;51.534;6.722;2023-03-05T04:13:52;5.90;;;2.28;;
15331;SDS011;7766;51.534;6.722;2023-03-05T04:14:53;6.72;;;1.75;;
15331;SDS011;7766;51.534;6.722;2023-03-05T04:15:55;5.75;;;1.83;;
15331;SDS011;7766;51.534;6.722;2023-03-05T04:16:56;6.05;;;2.03;;
15331;SDS011;7766;51.534;6.722;2023-03-05T04:17:57;4.17;;;1.90;;
15331;SDS011;7766;51.534;6.722;2023-03-05T04:18:58;4.63;;;2.03;;
15331;SDS011;7766;51.534;6.722;2023-03-05T04:19:59;8.87;;;2.33;;
15331;SDS011;7766;51.534;6.722;2023-03-05T04:21:00;5.75;;;2.13;;
15331;SDS011;7766;51.534;6.722;2023-03-05T04:22:01;8.95;;;2.22;;
15331;SDS011;7766;51.534;6.722;2023-03-05T04:23:02;7.10;;;1.70;;
15331;SDS011;7766;51.534;6.722;2023-03-05T04:24:03;4.25;;;1.80;;
15331;SDS011;7766;51.534;6.722;2023-03-05T04:25:04;7.28;;;1.92;;
15331;SDS011;7766;51.534;6.722;2023-03-05T04:26:07;6.53;;;1.88;;
15331;SDS011;7766;51.534;6.722;2023-03-05T04:27:08;6.77;;;2.23;;
15331;SDS011;7766;51.534;6.722;2023-03-05T04:28:10;5.05;;;1.60;;
15331;SDS011;7766;51.534;6.722;2023-03-05T04:29:11;7.30;;;1.63;;
15331;SDS011;7766;51.534;6.722;2023-03-05T04:30:12;5.70;;;2.10;;
15331;SDS011;7766;51.534;6.722;2023-03-05T04:31:13;6.10;;;2.30;;
15331;SDS011;7766;51.534;6.722;2023-03-05T04:32:14;6.47;;;2.08;;
15331;SDS011;7766;51.534;6.722;2023-03-05T04:33:21;6.57;;;2.10;;
15331;SDS011;7766;51.534;6.722;2023-03-05T04:34:23;6.43;;;2.05;;
15331;SDS011;7766;51.534;6.722;2023-03-05T04:35:24;5.13;;;1.98;;
15331;SDS011;7766;51.534;6.722;2023-03-05T04:36:25;7.65;;;2.58;;
15331;SDS011;7766;51.534;6.722;2023-03-05T04:37:26;7.82;;;2.70;;
15331;SDS011;7766;51.534;6.722;2023-03-05T04:38:27;6.00;;;2.28;;
15331;SDS011;7766;51.534;6.722;2023-03-05T04:39:28;8.88;;;2.13;;
15331;SDS011;7766;51.534;6.722;2023-03-05T04:40:29;5.20;;;2.13;;
15331;SDS011;7766;51.534;6.722;2023-03-05T04:41:30;7.68;;;2.30;;
15331;SDS011;7766;51.534;6.722;2023-03-05T04:42:31;7.13;;;2.53;;
15331;SDS011;7766;51.534;6.722;2023-03-05T04:43:32;9.30;;;2.23;;
15331;SDS011;7766;51.534;6.722;2023-03-05T04:44:32;8.20;;;2.40;;
15331;SDS011;7766;51.534;6.722;2023-03-05T04:45:33;8.98;;;2.28;;
15331;SDS011;7766;51.534;6.722;2023-03-05T04:46:36;8.15;;;2.08;;
15331;SDS011;7766;51.534;6.722;2023-03-05T04:47:37;8.17;;;2.57;;
15331;SDS011;7766;51.534;6.722;2023-03-05T04:48:38;4.55;;;1.90;;
15331;SDS011;7766;51.534;6.722;2023-03-05T04:49:39;8.00;;;2.38;;
15331;SDS011;7766;51.534;6.722;2023-03-05T04:50:40;8.18;;;2.17;;
15331;SDS011;7766;51.534;6.722;2023-03-05T04:51:41;10.37;;;2.57;;
15331;SDS011;7766;51.534;6.722;2023-03-05T04:52:42;8.97;;;2.67;;
15331;SDS011;7766;51.534;6.722;2023-03-05T04:53:44;8.43;;;2.70;;
15331;SDS011;7766;51.534;6.722;2023-03-05T04:54:45;7.20;;;2.17;;
15331;SDS011;7766;51.534;6.722;2023-03-05T04:55:51;6.53;;;2.42;;
15331;SDS011;7766;51.534;6.722;2023-03-05T04:56:53;4.45;;;2.35;;
15331;SDS011;7766;51.534;6.722;2023-03-05T04:57:54;9.30;;;2.70;;
15331;SDS011;7766;51.534;6.722;2023-03-05T04:58:55;8.85;;;3.25;;
15331;SDS011;7766;51.534;6.722;2023-03-05T04:59:56;5.90;;;2.33;;
15331;SDS011;7766;51.534;6.722;2023-03-05T05:01:01;8.00;;;2.50;;
15331;SDS011;7766;51.534;6.722;2023-03-05T05:02:04;7.90;;;2.45;;
15331;SDS011;7766;51.534;6.722;2023-03-05T05:03:05;10.02;;;2.28;;
15331;SDS011;7766;51.534;6.722;2023-03-05T05:04:06;8.10;;;2.80;;
15331;SDS011;7766;51.534;6.722;2023-03-05T05:05:08;6.18;;;2.88;;
15331;SDS011;7766;51.534;6.722;2023-03-05T05:06:12;5.18;;;2.30;;
15331;SDS011;7766;51.534;6.722;2023-03-05T05:07:12;5.67;;;2.33;;
15331;SDS011;7766;51.534;6.722;2023-03-05T05:08:13;6.95;;;2.42;;
15331;SDS011;7766;51.534;6.722;2023-03-05T05:09:14;6.93;;;2.30;;
15331;SDS011;7766;51.534;6.722;2023-03-05T05:10:15;6.25;;;2.03;;
15331;SDS011;7766;51.534;6.722;2023-03-05T05:11:16;6.00;;;1.80;;
15331;SDS011;7766;51.534;6.722;2023-03-05T05:12:17;8.02;;;2.10;;
15331;SDS011;7766;51.534;6.722;2023-03-05T05:13:18;10.02;;;2.33;;
15331;SDS011;7766;51.534;6.722;2023-03-05T05:14:19;5.60;;;2.30;;
15331;SDS011;7766;51.534;6.722;2023-03-05T05:15:21;6.38;;;2.33;;
15331;SDS011;7766;51.534;6.722;2023-03-05T05:16:22;8.57;;;2.67;;
15331;SDS011;7766;51.534;6.722;2023-03-05T05:17:23;5.50;;;2.13;;
15331;SDS011;7766;51.534;6.722;2023-03-05T05:18:25;8.70;;;2.72;;
15331;SDS011;7766;51.534;6.722;2023-03-05T05:19:26;10.15;;;2.55;;
15331;SDS011;7766;51.534;6.722;2023-03-05T05:20:27;7.13;;;2.10;;
15331;SDS011;7766;51.534;6.722;2023-03-05T05:21:27;3.73;;;2.10;;
15331;SDS011;7766;51.534;6.722;2023-03-05T05:22:28;9.02;;;2.45;;
15331;SDS011;7766;51.534;6.722;2023-03-05T05:23:29;9.77;;;2.57;;
15331;SDS011;7766;51.534;6.722;2023-03-05T05:24:30;3.53;;;2.27;;
15331;SDS011;7766;51.534;6.722;2023-03-05T05:25:31;11.00;;;2.25;;
15331;SDS011;7766;51.534;6.722;2023-03-05T05:26:32;11.20;;;2.43;;
15331;SDS011;7766;51.534;6.722;2023-03-05T05:27:33;7.47;;;2.28;;
15331;SDS011;7766;51.534;6.722;2023-03-05T05:28:34;4.85;;;2.22;;
15331;SDS011;7766;51.534;6.722;2023-03-05T05:29:37;8.55;;;2.47;;
15331;SDS011;7766;51.534;6.722;2023-03-05T05:30:38;4.57;;;2.00;;
15331;SDS011;7766;51.534;6.722;2023-03-05T05:31:39;6.28;;;1.95;;
15331;SDS011;7766;51.534;6.722;2023-03-05T05:32:39;6.00;;;2.03;;
15331;SDS011;7766;51.534;6.722;2023-03-05T05:33:41;8.37;;;2.20;;
15331;SDS011;7766;51.534;6.722;2023-03-05T05:34:42;9.07;;;2.50;;
15331;SDS011;7766;51.534;6.722;2023-03-05T05:35:43;10.85;;;2.47;;
15331;SDS011;7766;51.534;6.722;2023-03-05T05:36:44;5.10;;;2.35;;
15331;SDS011;7766;51.534;6.722;2023-03-05T05:37:45;7.88;;;2.80;;
15331;SDS011;7766;51.534;6.722;2023-03-05T05:38:46;6.25;;;2.35;;
15331;SDS011;7766;51.534;6.722;2023-03-05T05:39:49;4.53;;;2.25;;
15331;SDS011;7766;51.534;6.722;2023-03-05T05:40:50;8.35;;;2.08;;
15331;SDS011;7766;51.534;6.722;2023-03-05T05:41:51;7.07;;;2.95;;
15331;SDS011;7766;51.534;6.722;2023-03-05T05:42:53;6.97;;;2.38;;
15331;SDS011;7766;51.534;6.722;2023-03-05T05:43:54;10.95;;;2.92;;
15331;SDS011;7766;51.534;6.722;2023-03-05T05:44:55;7.68;;;2.13;;
15331;SDS011;7766;51.534;6.722;2023-03-05T05:46:03;6.38;;;2.35;;
15331;SDS011;7766;51.534;6.722;2023-03-05T05:47:06;6.97;;;2.38;;
15331;SDS011;7766;51.534;6.722;2023-03-05T05:48:07;8.70;;;2.23;;
15331;SDS011;7766;51.534;6.722;2023-03-05T05:49:08;6.57;;;2.15;;
15331;SDS011;7766;51.534;6.722;2023-03-05T05:50:09;7.93;;;3.10;;
15331;SDS011;7766;51.534;6.722;2023-03-05T05:51:11;6.65;;;2.25;;
15331;SDS011;7766;51.534;6.722;2023-03-05T05:52:21;8.80;;;2.25;;
15331;SDS011;7766;51.534;6.722;2023-03-05T05:53:23;5.97;;;2.10;;
15331;SDS011;7766;51.534;6.722;2023-03-05T05:54:24;8.10;;;2.03;;
15331;SDS011;7766;51.534;6.722;2023-03-05T05:55:25;11.65;;;2.30;;
15331;SDS011;7766;51.534;6.722;2023-03-05T05:56:26;6.27;;;2.33;;
15331;SDS011;7766;51.534;6.722;2023-03-05T05:57:27;5.55;;;2.15;;
15331;SDS011;7766;51.534;6.722;2023-03-05T05:58:28;7.85;;;2.63;;
15331;SDS011;7766;51.534;6.722;2023-03-05T05:59:29;8.20;;;2.87;;
15331;SDS011;7766;51.534;6.722;2023-03-05T06:00:30;8.40;;;2.55;;
15331;SDS011;7766;51.534;6.722;2023-03-05T06:01:31;9.85;;;2.40;;
15331;SDS011;7766;51.534;6.722;2023-03-05T06:02:33;6.45;;;2.00;;
15331;SDS011;7766;51.534;6.722;2023-03-05T06:03:38;7.93;;;2.28;;
15331;SDS011;7766;51.534;6.722;2023-03-05T06:04:39;5.97;;;2.22;;
15331;SDS011;7766;51.534;6.722;2023-03-05T06:05:40;7.97;;;2.40;;
15331;SDS011;7766;51.534;6.722;2023-03-05T06:06:42;7.72;;;2.22;;
15331;SDS011;7766;51.534;6.722;2023-03-05T06:07:43;7.40;;;2.00;;
15331;SDS011;7766;51.534;6.722;2023-03-05T06:08:44;7.10;;;2.10;;
15331;SDS011;7766;51.534;6.722;2023-03-05T06:09:45;6.53;;;2.15;;
15331;SDS011;7766;51.534;6.722;2023-03-05T06:10:52;9.75;;;2.60;;
15331;SDS011;7766;51.534;6.722;2023-03-05T06:11:54;9.00;;;2.20;;
15331;SDS011;7766;51.534;6.722;2023-03-05T06:12:55;8.02;;;2.20;;
15331;SDS011;7766;51.534;6.722;2023-03-05T06:13:56;10.13;;;2.83;;
15331;SDS011;7766;51.534;6.722;2023-03-05T06:14:57;7.07;;;3.10;;
15331;SDS011;7766;51.534;6.722;2023-03-05T06:15:58;7.53;;;2.90;;
15331;SDS011;7766;51.534;6.722;2023-03-05T06:17:02;9.95;;;2.30;;
15331;SDS011;7766;51.534;6.722;2023-03-05T06:18:03;3.33;;;2.58;;
15331;SDS011;7766;51.534;6.722;2023-03-05T06:19:04;5.00;;;2.28;;